Estación Meteorológica Peña el Pijo (Robertgarden) [ 07/21/17 06:33:18 CEST ]

Fecha Hora Presion(HPa) Temp (°C) Humedad % Rocio (°C) Viento ( m/s) Direccion Lluvia 1Hora(mm) Lluvia 24H(mm) LLuvia Total(mm)
2017-Mar-29 01:01:34 1018.300 7.3 70 2.2         1357.16
2017-Mar-29 02:01:47 1018.000 6.1 73 1.6         1357.16
2017-Mar-29 03:05:14 1017.800 4.8 76 0.9         1357.16
2017-Mar-29 04:01:33 1017.400 4.2 78 0.7         1357.16
2017-Mar-29 05:01:37 1017.200 3.8 79 0.5         1357.16
2017-Mar-29 06:01:37 1017.000 3.1 80 0.0         1357.16
2017-Mar-29 07:01:40 1017.200 2.5 81 -0.4         1357.16
2017-Mar-29 08:01:39 1017.500 2.4 82 -0.4         1357.16
2017-Mar-29 09:01:37 1017.500 3.8 85 1.5         1357.16
2017-Mar-29 10:01:54 1017.400 10.5 81 7.4         1357.16
2017-Mar-29 11:02:01 1017.400 14.9 58 6.7         1357.16
2017-Mar-29 12:02:04 1017.400 17.6 47 6.1         1357.16
2017-Mar-29 13:01:59 1017.100 20.8 37 5.5         1357.16
2017-Mar-29 14:01:34 1016.400 20.7 36 5.0         1357.16
2017-Mar-29 15:01:57 1015.900 21.9 33 4.8         1357.16
2017-Mar-29 16:01:53 1015.000 22.6 32 5.0         1357.16
2017-Mar-29 17:01:33 1014.400 21.9 33 4.8         1357.16
2017-Mar-29 18:02:04 1014.000 21.1 34 4.5         1357.16
2017-Mar-29 19:01:33 1014.200 19.4 36 3.8         1357.16
2017-Mar-29 20:01:38 1014.600 16.6 42 3.6         1357.16
2017-Mar-29 21:01:35 1015.000 13.8 52 4.1         1357.16
2017-Mar-29 22:01:49 1015.800 11.5 57 3.2         1357.16
2017-Mar-29 23:01:53 1016.300 8.8 63 2.1         1357.16

Temperatura Máxima:22°    Temperatura Mínima:
Presión Máxima:1018.300 Hpa    Presión Mínima:1014.000 Hpa


Volver